createdAt,value
2018-01-12T00:01:08.074Z,48.93
2018-01-12T00:03:36.338Z,50.57
2018-01-12T00:06:03.821Z,46.80
2018-01-12T00:08:31.299Z,47.80
2018-01-12T00:10:58.801Z,51.07
2018-01-12T00:13:26.286Z,51.10
2018-01-12T00:15:54.529Z,52.77
2018-01-12T00:18:21.999Z,51.10
2018-01-12T00:20:49.556Z,50.40
2018-01-12T00:23:17.044Z,50.77
2018-01-12T00:25:45.334Z,53.47
2018-01-12T00:28:12.806Z,54.67
2018-01-12T00:30:40.275Z,54.13
2018-01-12T00:33:07.753Z,56.23
2018-01-12T00:35:36.722Z,56.90
2018-01-12T00:38:04.198Z,54.90
2018-01-12T00:40:31.686Z,56.27
2018-01-12T00:42:59.921Z,54.63
2018-01-12T00:45:27.381Z,57.60
2018-01-12T00:47:54.900Z,58.07
2018-01-12T00:50:22.354Z,61.27
2018-01-12T00:52:49.866Z,58.27
2018-01-12T00:55:17.337Z,57.10
2018-01-12T00:57:45.597Z,58.27
2018-01-12T01:00:13.154Z,59.50
2018-01-12T01:02:41.384Z,58.27
2018-01-12T01:05:08.873Z,60.27
2018-01-12T01:07:36.346Z,63.10
2018-01-12T01:10:03.842Z,59.73
2018-01-12T01:12:31.314Z,61.50
2018-01-12T01:14:58.805Z,59.43
2018-01-12T01:17:26.270Z,63.10
2018-01-12T01:19:53.777Z,58.83
2018-01-12T01:22:21.250Z,62.80
2018-01-12T01:24:48.732Z,61.47
2018-01-12T01:27:16.205Z,57.80
2018-01-12T01:29:44.453Z,58.77
2018-01-12T01:32:11.933Z,57.37
2018-01-12T01:34:40.166Z,58.27
2018-01-12T01:37:07.642Z,57.10
2018-01-12T01:39:35.106Z,56.93
2018-01-12T01:42:02.586Z,60.53
2018-01-12T01:44:30.838Z,63.13
2018-01-12T01:46:58.310Z,58.33
2018-01-12T01:49:26.554Z,61.83
2018-01-12T01:51:54.014Z,65.03
2018-01-12T01:54:21.502Z,63.00
2018-01-12T01:56:49.747Z,62.80
2018-01-12T01:59:17.233Z,63.30
2018-01-12T02:01:45.469Z,56.93
2018-01-12T02:04:12.952Z,55.60
2018-01-12T02:06:40.422Z,53.17
2018-01-12T02:09:08.651Z,51.30
2018-01-12T02:11:36.122Z,51.17
2018-01-12T02:14:03.610Z,55.07
2018-01-12T02:16:31.871Z,55.90
2018-01-12T02:18:59.381Z,53.73
2018-01-12T02:21:26.939Z,54.03
2018-01-12T02:23:54.398Z,56.67
2018-01-12T02:26:21.877Z,58.00
2018-01-12T02:28:49.457Z,57.83
2018-01-12T02:31:16.942Z,57.53
2018-01-12T02:33:44.424Z,54.60
2018-01-12T02:36:11.897Z,58.10
2018-01-12T02:38:39.379Z,56.20
2018-01-12T02:41:06.861Z,52.73
2018-01-12T02:43:35.090Z,56.13
2018-01-12T02:46:02.579Z,54.57
2018-01-12T02:48:30.042Z,55.50
2018-01-12T02:50:58.280Z,56.00
2018-01-12T02:53:25.764Z,55.10
2018-01-12T02:55:53.224Z,57.07
2018-01-12T02:58:20.697Z,57.93
2018-01-12T03:00:48.930Z,56.60
2018-01-12T03:03:16.418Z,59.23
2018-01-12T03:05:43.897Z,58.43
2018-01-12T03:08:11.379Z,53.03
2018-01-12T03:10:38.837Z,56.23
2018-01-12T03:13:07.182Z,56.90
2018-01-12T03:15:34.650Z,54.70
2018-01-12T03:18:02.220Z,56.00
2018-01-12T03:20:29.697Z,52.03
2018-01-12T03:22:57.162Z,52.83
2018-01-12T03:25:24.644Z,51.97
2018-01-12T03:27:52.882Z,53.23
2018-01-12T03:30:20.373Z,50.77
2018-01-12T03:32:47.839Z,53.70
2018-01-12T03:35:15.333Z,51.40
2018-01-12T03:37:42.798Z,50.73
2018-01-12T03:40:10.257Z,53.87
2018-01-12T03:42:37.742Z,51.73
2018-01-12T03:45:05.210Z,52.70
2018-01-12T03:47:32.686Z,54.17
2018-01-12T03:50:00.937Z,53.17
2018-01-12T03:52:28.398Z,53.40
2018-01-12T03:54:55.882Z,53.07
2018-01-12T03:57:23.344Z,53.17
2018-01-12T03:59:50.825Z,54.40
2018-01-12T04:02:18.295Z,51.97
2018-01-12T04:04:45.753Z,52.30
2018-01-12T04:07:13.241Z,55.80
2018-01-12T04:09:40.749Z,52.10
2018-01-12T04:12:08.225Z,52.97
2018-01-12T04:14:35.705Z,55.23
2018-01-12T04:17:03.185Z,54.80
2018-01-12T04:19:31.413Z,55.83
2018-01-12T04:21:58.898Z,58.27
2018-01-12T04:24:26.385Z,55.10
2018-01-12T04:26:53.854Z,53.60
2018-01-12T04:29:21.365Z,51.17
2018-01-12T04:31:48.843Z,55.33
2018-01-12T04:34:17.073Z,52.87
2018-01-12T04:36:44.558Z,51.93
2018-01-12T04:39:12.035Z,52.00
2018-01-12T04:41:40.267Z,50.63
2018-01-12T04:44:07.730Z,50.60
2018-01-12T04:46:35.213Z,52.17
2018-01-12T04:49:03.561Z,47.10
2018-01-12T04:51:31.053Z,49.00
2018-01-12T04:53:59.291Z,50.20
2018-01-12T04:56:26.775Z,49.10
2018-01-12T04:58:55.016Z,49.17
2018-01-12T05:01:22.483Z,51.30
2018-01-12T05:03:49.976Z,49.03
2018-01-12T05:06:18.210Z,48.93
2018-01-12T05:08:45.695Z,50.70
2018-01-12T05:11:13.938Z,49.27
2018-01-12T05:13:41.423Z,48.17
2018-01-12T05:16:09.663Z,48.20
2018-01-12T05:18:37.155Z,50.07
2018-01-12T05:21:04.616Z,46.73
2018-01-12T05:23:32.855Z,48.73
2018-01-12T05:26:00.336Z,49.13
2018-01-12T05:28:27.886Z,47.70
2018-01-12T05:30:55.377Z,48.90
2018-01-12T05:33:22.850Z,47.63
2018-01-12T05:35:50.330Z,49.77
2018-01-12T05:38:17.814Z,53.87
2018-01-12T05:40:45.278Z,53.67
2018-01-12T05:43:13.519Z,55.67
2018-01-12T05:45:41.010Z,59.80
2018-01-12T05:48:08.474Z,55.50
2018-01-12T05:50:36.741Z,57.43
2018-01-12T05:53:04.310Z,57.30
2018-01-12T05:55:32.553Z,56.90
2018-01-12T05:58:00.050Z,59.17
2018-01-12T06:00:28.283Z,58.00
2018-01-12T06:03:07.642Z,55.83
2018-01-12T06:05:46.995Z,54.17
2018-01-12T06:08:15.362Z,54.00
2018-01-12T06:10:43.606Z,54.90
2018-01-12T06:13:11.093Z,57.10
2018-01-12T06:15:39.341Z,58.20
2018-01-12T06:18:06.812Z,61.40
2018-01-12T06:20:34.286Z,58.17
2018-01-12T06:23:02.522Z,58.67
2018-01-12T06:25:30.003Z,59.73
2018-01-12T06:27:57.512Z,60.07
2018-01-12T06:30:25.019Z,59.30
2018-01-12T06:32:52.527Z,58.13
2018-01-12T06:35:20.034Z,60.53
2018-01-12T06:37:47.511Z,52.70
2018-01-12T06:40:15.757Z,58.83
2018-01-12T06:42:43.238Z,56.50
2018-01-12T06:45:11.485Z,56.67
2018-01-12T06:47:38.990Z,59.63
2018-01-12T06:50:06.451Z,59.53
2018-01-12T06:52:33.926Z,59.07
2018-01-12T06:55:01.391Z,54.60
2018-01-12T06:57:28.871Z,55.43
2018-01-12T06:59:56.353Z,55.77
2018-01-12T07:02:24.598Z,56.67
2018-01-12T07:04:52.825Z,55.37
2018-01-12T07:07:20.294Z,56.10
2018-01-12T07:09:47.779Z,56.27
2018-01-12T07:12:15.257Z,57.13
2018-01-12T07:14:42.723Z,58.57
2018-01-12T07:17:10.966Z,60.97
2018-01-12T07:19:38.455Z,62.67
2018-01-12T07:22:18.531Z,60.10
2018-01-12T07:24:46.011Z,60.07
2018-01-12T07:27:13.479Z,63.43
2018-01-12T07:29:40.945Z,61.23
2018-01-12T07:32:08.434Z,62.73
2018-01-12T07:34:36.674Z,61.80
2018-01-12T07:37:04.162Z,60.50
2018-01-12T07:39:32.421Z,59.70
2018-01-12T07:41:59.893Z,59.30
2018-01-12T07:44:27.355Z,60.17
2018-01-12T07:46:56.318Z,58.37
2018-01-12T07:49:23.782Z,58.67
2018-01-12T07:51:51.245Z,58.83
2018-01-12T07:54:18.726Z,57.90
2018-01-12T07:56:46.975Z,55.37
2018-01-12T07:59:14.450Z,54.93
2018-01-12T08:01:48.382Z,52.97
2018-01-12T08:04:15.869Z,57.83
2018-01-12T08:06:43.330Z,57.63
2018-01-12T08:09:10.817Z,58.63
2018-01-12T08:11:39.050Z,55.67
2018-01-12T08:14:06.534Z,55.30
2018-01-12T08:16:33.997Z,56.60
2018-01-12T08:19:01.461Z,55.10
2018-01-12T08:21:29.709Z,54.00
2018-01-12T08:23:57.226Z,54.30
2018-01-12T08:26:24.691Z,55.20
2018-01-12T08:28:52.162Z,55.50
2018-01-12T08:31:19.646Z,54.03
2018-01-12T08:33:47.102Z,55.17
2018-01-12T08:36:14.578Z,52.37
2018-01-12T08:38:42.809Z,51.97
2018-01-12T08:41:10.275Z,51.67
2018-01-12T08:43:37.755Z,54.80
2018-01-12T08:46:05.226Z,56.27
2018-01-12T08:48:33.483Z,53.20
2018-01-12T08:51:00.951Z,52.80
2018-01-12T08:53:28.454Z,50.77
2018-01-12T08:55:55.924Z,52.07
2018-01-12T08:58:23.395Z,45.37
2018-01-12T09:00:50.926Z,47.13
2018-01-12T09:03:18.382Z,44.27
2018-01-12T09:05:45.862Z,46.50
2018-01-12T09:08:13.397Z,44.67
2018-01-12T09:10:40.869Z,47.70
2018-01-12T09:13:20.387Z,48.73
2018-01-12T09:15:47.905Z,49.10
2018-01-12T09:18:35.090Z,45.53
2018-01-12T09:21:14.626Z,44.93
2018-01-12T09:23:42.093Z,43.60
2018-01-12T09:26:09.574Z,45.10
2018-01-12T09:28:37.141Z,44.30
2018-01-12T09:31:05.369Z,43.30
2018-01-12T09:33:32.839Z,46.97
2018-01-12T09:36:00.306Z,48.30
2018-01-12T09:41:31.237Z,45.63
2018-01-12T09:43:58.726Z,49.83
2018-01-12T09:46:26.206Z,51.17
2018-01-12T09:48:54.433Z,52.00
2018-01-12T09:51:21.899Z,52.57
2018-01-12T09:53:49.393Z,55.23
2018-01-12T09:56:17.647Z,52.53
2018-01-12T09:58:46.634Z,54.67
2018-01-12T10:01:25.082Z,52.90
2018-01-12T10:03:52.565Z,53.10
2018-01-12T10:06:20.061Z,53.80
2018-01-12T10:08:47.512Z,52.70
2018-01-12T10:11:15.006Z,51.27
2018-01-12T10:13:43.229Z,52.47
2018-01-12T10:16:10.705Z,55.63
2018-01-12T10:18:42.039Z,57.07
2018-01-12T10:21:21.434Z,53.20
2018-01-12T10:23:48.889Z,56.20
2018-01-12T10:26:16.382Z,56.87
2018-01-12T10:28:55.685Z,59.23
2018-01-12T10:31:33.105Z,59.40
2018-01-12T10:34:08.377Z,61.30
2018-01-12T10:36:36.622Z,58.70
2018-01-12T10:39:04.108Z,58.67
2018-01-12T10:41:38.237Z,57.17
2018-01-12T10:44:06.479Z,62.23
2018-01-12T10:46:45.946Z,58.23
2018-01-12T10:49:26.165Z,58.60
2018-01-12T10:52:05.749Z,57.30
2018-01-12T10:54:33.978Z,55.50
2018-01-12T10:57:01.478Z,54.40
2018-01-12T10:59:29.717Z,53.70
2018-01-12T11:01:58.693Z,57.47
2018-01-12T11:04:26.192Z,55.57
2018-01-12T11:06:54.425Z,55.93
2018-01-12T11:09:21.901Z,58.53
2018-01-12T11:11:50.873Z,56.20
2018-01-12T11:14:18.357Z,56.30
2018-01-12T11:16:45.825Z,57.50
2018-01-12T11:19:14.069Z,56.37
2018-01-12T11:21:41.545Z,54.20
2018-01-12T11:24:09.044Z,55.50
2018-01-12T11:26:36.496Z,57.40
2018-01-12T11:29:03.973Z,56.37
2018-01-12T11:31:31.433Z,58.17
2018-01-12T11:33:58.913Z,55.03
2018-01-12T11:36:26.438Z,55.57
2018-01-12T11:38:53.907Z,52.87
2018-01-12T11:41:21.371Z,51.77
2018-01-12T11:43:48.883Z,46.67
2018-01-12T11:46:17.113Z,49.07
2018-01-12T11:48:44.590Z,46.73
2018-01-12T11:51:12.077Z,48.63
2018-01-12T11:53:39.562Z,46.37
2018-01-12T11:56:07.051Z,47.07
2018-01-12T11:58:34.525Z,45.37
2018-01-12T12:01:02.754Z,45.70
2018-01-12T12:03:30.226Z,47.00
2018-01-12T12:05:57.690Z,45.10
2018-01-12T12:08:25.947Z,45.60
2018-01-12T12:10:53.430Z,47.03
2018-01-12T12:13:20.889Z,49.87
2018-01-12T12:15:48.369Z,52.17
2018-01-12T12:18:15.837Z,51.20
2018-01-12T12:20:43.314Z,50.77
2018-01-12T12:23:10.810Z,50.50
2018-01-12T12:25:38.278Z,51.23
2018-01-12T12:28:06.529Z,51.93
2018-01-12T12:30:34.004Z,52.30
2018-01-12T12:33:01.490Z,48.40
2018-01-12T12:35:28.958Z,83.87
2018-01-12T12:37:56.539Z,50.00
2018-01-12T12:40:24.018Z,47.03
2018-01-12T12:42:51.498Z,47.50
2018-01-12T12:45:18.962Z,47.50
2018-01-12T12:47:47.202Z,48.40
2018-01-12T12:50:14.674Z,47.70
2018-01-12T12:52:42.147Z,47.83
2018-01-12T12:55:10.390Z,45.53
2018-01-12T12:57:37.869Z,43.63
2018-01-12T13:00:05.342Z,47.07
2018-01-12T13:02:33.585Z,43.60
2018-01-12T13:05:01.066Z,43.73
2018-01-12T13:07:29.298Z,44.03
2018-01-12T13:09:56.789Z,44.67
2018-01-12T13:12:25.017Z,44.00
2018-01-12T13:14:52.477Z,46.37
2018-01-12T13:17:19.969Z,45.50
2018-01-12T13:19:47.537Z,43.73
2018-01-12T13:22:15.861Z,46.03
2018-01-12T13:24:43.318Z,44.60
2018-01-12T13:27:10.804Z,46.40
2018-01-12T13:29:38.274Z,45.70
2018-01-12T13:32:05.750Z,42.70
2018-01-12T13:34:33.993Z,45.50
2018-01-12T13:37:01.461Z,46.07
2018-01-12T13:39:28.947Z,43.73
2018-01-12T13:41:57.173Z,47.07
2018-01-12T13:44:24.657Z,43.57
2018-01-12T13:46:53.647Z,45.50
2018-01-12T13:49:22.636Z,42.53
2018-01-12T13:51:50.095Z,47.47
2018-01-12T13:54:17.561Z,45.03
2018-01-12T13:56:45.793Z,47.27
2018-01-12T13:59:13.275Z,48.10
2018-01-12T14:01:40.753Z,44.87
2018-01-12T14:04:09.011Z,44.90
2018-01-12T14:06:37.250Z,45.90
2018-01-12T14:09:04.720Z,44.40
2018-01-12T14:11:32.202Z,46.63
2018-01-12T14:14:01.181Z,48.37
2018-01-12T14:16:29.426Z,48.20
2018-01-12T14:18:56.898Z,50.70
2018-01-12T14:21:24.433Z,49.00
2018-01-12T14:23:52.622Z,47.83
2018-01-12T14:26:20.118Z,47.97
2018-01-12T14:28:48.359Z,46.87
2018-01-12T14:31:15.841Z,48.47
2018-01-12T14:33:44.078Z,47.53
2018-01-12T14:36:11.561Z,48.50
2018-01-12T14:38:39.028Z,51.17
2018-01-12T14:41:06.511Z,50.23
2018-01-12T14:43:34.737Z,48.30
2018-01-12T14:46:02.216Z,49.90
2018-01-12T14:48:29.698Z,48.90
2018-01-12T14:50:57.961Z,50.23
2018-01-12T14:53:26.201Z,48.67
2018-01-12T14:58:34.329Z,48.80
2018-01-12T15:01:01.814Z,51.67
2018-01-12T15:03:30.046Z,47.30
2018-01-12T15:05:57.530Z,48.07
2018-01-12T15:08:25.007Z,50.90
2018-01-12T15:10:53.265Z,48.17
2018-01-12T15:13:20.724Z,49.37
2018-01-12T15:15:48.962Z,50.10
2018-01-12T15:18:16.455Z,51.10
2018-01-12T15:20:43.941Z,51.17
2018-01-12T15:23:12.181Z,50.53
2018-01-12T15:25:40.422Z,49.27
2018-01-12T15:28:07.905Z,50.67
2018-01-12T15:30:35.377Z,48.80
2018-01-12T15:33:02.875Z,49.23
2018-01-12T15:35:30.373Z,51.63
2018-01-12T15:37:57.849Z,49.40
2018-01-12T15:40:25.326Z,52.73
2018-01-12T15:42:54.977Z,49.50
2018-01-12T15:45:23.753Z,49.57
2018-01-12T15:47:51.212Z,47.43
2018-01-12T15:50:19.665Z,46.70
2018-01-12T15:52:47.143Z,47.83
2018-01-12T15:55:15.557Z,45.97
2018-01-12T15:57:43.303Z,45.90
2018-01-12T16:00:10.824Z,46.27
2018-01-12T16:02:38.262Z,46.30
2018-01-12T16:05:06.567Z,45.90
2018-01-12T16:07:34.038Z,45.73
2018-01-12T16:10:01.520Z,46.00
2018-01-12T16:12:28.998Z,43.90
2018-01-12T16:14:57.394Z,43.30
2018-01-12T16:17:26.629Z,45.53
2018-01-12T16:19:54.091Z,46.70
2018-01-12T16:22:21.581Z,44.87
2018-01-12T16:24:51.954Z,47.67
2018-01-12T16:27:19.421Z,47.93
2018-01-12T16:29:46.916Z,47.87
2018-01-12T16:32:14.397Z,44.67
2018-01-12T16:34:42.647Z,44.57
2018-01-12T16:37:11.993Z,46.10
2018-01-12T16:39:39.466Z,42.60
2018-01-12T16:42:06.946Z,42.43
2018-01-12T16:44:34.419Z,45.50
2018-01-12T16:47:01.899Z,44.37
2018-01-12T16:49:32.880Z,46.17
2018-01-12T16:52:00.347Z,47.53
2018-01-12T16:54:27.814Z,46.17
2018-01-12T16:56:55.308Z,47.73
2018-01-12T16:59:23.555Z,47.40
2018-01-12T17:01:51.042Z,46.37
2018-01-12T17:04:19.860Z,45.47
2018-01-12T17:06:47.334Z,45.27
2018-01-12T17:09:15.242Z,45.57
2018-01-12T17:11:43.485Z,44.00
2018-01-12T17:14:10.975Z,45.03
2018-01-12T17:16:38.430Z,45.67
2018-01-12T17:19:06.669Z,48.50
2018-01-12T17:21:34.190Z,47.20
2018-01-12T17:24:02.614Z,46.20
2018-01-12T17:26:30.083Z,49.20
2018-01-12T17:28:58.548Z,47.93
2018-01-12T17:31:26.031Z,51.77
2018-01-12T17:33:53.509Z,50.57
2018-01-12T17:36:21.002Z,50.33
2018-01-12T17:38:48.488Z,49.97
2018-01-12T17:41:16.004Z,50.17
2018-01-12T17:43:43.478Z,52.70
2018-01-12T17:46:10.954Z,53.67
2018-01-12T17:48:39.970Z,51.90
2018-01-12T17:51:08.223Z,53.30
2018-01-12T17:53:35.707Z,54.80
2018-01-12T17:56:03.960Z,53.10
2018-01-12T17:58:31.430Z,53.53
2018-01-12T18:00:59.701Z,52.80
2018-01-12T18:03:27.190Z,55.07
2018-01-12T18:05:54.651Z,57.20
2018-01-12T18:08:22.938Z,54.37
2018-01-12T18:10:50.390Z,54.50
2018-01-12T18:13:17.866Z,53.50
2018-01-12T18:15:45.353Z,56.30
2018-01-12T18:18:12.921Z,54.47
2018-01-12T18:20:40.412Z,56.93
2018-01-12T18:23:07.881Z,54.20
2018-01-12T18:25:35.446Z,53.23
2018-01-12T18:28:02.957Z,55.97
2018-01-12T18:30:30.413Z,56.13
2018-01-12T18:32:58.670Z,55.03
2018-01-12T18:35:26.162Z,56.17
2018-01-12T18:37:54.409Z,65.60
2018-01-12T18:40:21.881Z,63.20
2018-01-12T18:42:50.156Z,59.53
2018-01-12T18:45:17.605Z,57.00
2018-01-12T18:47:45.104Z,55.83
2018-01-12T18:50:13.493Z,55.30
2018-01-12T18:52:40.965Z,53.10
2018-01-12T18:55:08.457Z,51.40
2018-01-12T18:57:36.702Z,52.67
2018-01-12T19:00:04.228Z,51.07
2018-01-12T19:02:31.711Z,52.87
2018-01-12T19:04:59.177Z,52.57
2018-01-12T19:07:26.696Z,53.33
2018-01-12T19:09:54.171Z,53.20
2018-01-12T19:12:21.634Z,52.90
2018-01-12T19:14:49.131Z,51.27
2018-01-12T19:17:16.615Z,51.17
2018-01-12T19:19:44.106Z,48.97
2018-01-12T19:22:11.586Z,52.73
2018-01-12T19:24:39.065Z,49.50
2018-01-12T19:27:07.299Z,63.37
2018-01-12T19:29:34.827Z,68.33
2018-01-12T19:32:02.285Z,66.93
2018-01-12T19:34:29.754Z,64.83
2018-01-12T19:36:57.251Z,65.10
2018-01-12T19:39:24.706Z,64.73
2018-01-12T19:41:52.219Z,65.67
2018-01-12T19:44:19.694Z,66.80
2018-01-12T19:46:47.197Z,63.20
2018-01-12T19:49:15.445Z,62.70
2018-01-12T19:51:42.954Z,57.13
2018-01-12T19:54:10.438Z,56.47
2018-01-12T19:56:37.974Z,59.17
2018-01-12T19:59:05.443Z,58.00
2018-01-12T20:01:32.926Z,66.50
2018-01-12T20:04:00.453Z,60.23
2018-01-12T20:06:28.698Z,63.00
2018-01-12T20:08:59.118Z,61.73
2018-01-12T20:11:28.318Z,61.23
2018-01-12T20:13:56.546Z,58.30
2018-01-12T20:16:24.643Z,58.57
2018-01-12T20:18:53.094Z,67.17
2018-01-12T20:21:22.689Z,63.43
2018-01-12T20:23:50.178Z,64.37
2018-01-12T20:26:17.657Z,64.70
2018-01-12T20:28:46.723Z,63.40
2018-01-12T20:31:14.177Z,65.67
2018-01-12T20:33:41.657Z,67.27
2018-01-12T20:36:09.895Z,69.17
2018-01-12T20:38:38.238Z,69.33
2018-01-12T20:41:06.914Z,64.47
2018-01-12T20:43:34.398Z,65.60
2018-01-12T20:46:04.621Z,65.07
2018-01-12T20:48:32.589Z,66.97
2018-01-12T20:51:00.338Z,63.07
2018-01-12T20:53:28.970Z,62.73
2018-01-12T20:55:56.489Z,62.03
2018-01-12T20:58:23.958Z,60.60
2018-01-12T21:00:54.337Z,60.40
2018-01-12T21:03:23.182Z,60.03
2018-01-12T21:05:51.574Z,60.87
2018-01-12T21:08:19.835Z,64.37
2018-01-12T21:10:47.310Z,62.87
2018-01-12T21:13:16.140Z,61.97
2018-01-12T21:15:44.493Z,64.97
2018-01-12T21:18:13.426Z,66.80
2018-01-12T21:20:40.905Z,62.40
2018-01-12T21:23:09.239Z,63.27
2018-01-12T21:25:36.734Z,64.90
2018-01-12T21:28:04.267Z,61.80
2018-01-12T21:30:31.745Z,62.50
2018-01-12T21:32:59.214Z,64.63
2018-01-12T21:35:26.686Z,62.87
2018-01-12T21:37:54.194Z,62.20
2018-01-12T21:40:22.175Z,64.83
2018-01-12T21:42:49.724Z,66.47
2018-01-12T21:45:17.193Z,66.17
2018-01-12T21:47:44.683Z,64.23
2018-01-12T21:50:12.152Z,65.23
2018-01-12T21:52:40.398Z,65.30
2018-01-12T21:55:07.885Z,67.47
2018-01-12T21:57:36.141Z,69.20
2018-01-12T22:00:04.034Z,68.37
2018-01-12T22:02:33.169Z,66.97
2018-01-12T22:05:01.390Z,69.57
2018-01-12T22:07:29.428Z,70.30
2018-01-12T22:09:56.905Z,72.47
2018-01-12T22:12:25.374Z,68.03
2018-01-12T22:14:53.425Z,70.00
2018-01-12T22:17:20.902Z,68.67
2018-01-12T22:19:48.830Z,67.83
2018-01-12T22:22:16.310Z,72.60
2018-01-12T22:24:44.697Z,76.37
2018-01-12T22:27:13.344Z,71.07
2018-01-12T22:29:42.227Z,70.43
2018-01-12T22:32:10.275Z,69.77
2018-01-12T22:34:38.613Z,68.67
2018-01-12T22:37:06.073Z,71.30
2018-01-12T22:39:33.574Z,68.97
2018-01-12T22:42:02.698Z,68.53
2018-01-12T22:44:30.998Z,66.20
2018-01-12T22:46:58.941Z,67.40
2018-01-12T22:49:26.395Z,68.43
2018-01-12T22:51:54.711Z,66.27
2018-01-12T22:54:23.141Z,66.20
2018-01-12T22:56:50.650Z,67.37
2018-01-12T22:59:18.480Z,68.10
2018-01-12T23:01:45.956Z,66.33
2018-01-12T23:04:14.361Z,69.90
2018-01-12T23:06:41.854Z,68.53
2018-01-12T23:09:09.382Z,64.53
2018-01-12T23:11:37.619Z,68.83
2018-01-12T23:14:05.082Z,69.20
2018-01-12T23:16:33.322Z,67.27
2018-01-12T23:19:00.794Z,68.07
2018-01-12T23:21:29.238Z,71.37
2018-01-12T23:23:57.499Z,70.57
2018-01-12T23:26:26.683Z,69.50
2018-01-12T23:28:54.153Z,71.90
2018-01-12T23:31:21.625Z,71.63
2018-01-12T23:33:51.514Z,68.07
2018-01-12T23:36:21.636Z,67.73
2018-01-12T23:38:49.850Z,75.07
2018-01-12T23:41:17.354Z,72.83
2018-01-12T23:43:47.381Z,75.43
2018-01-12T23:46:15.400Z,73.23
2018-01-12T23:48:42.873Z,72.70
2018-01-12T23:51:10.351Z,71.90
2018-01-12T23:53:37.838Z,71.27
2018-01-12T23:56:06.147Z,73.73
2018-01-12T23:58:33.603Z,72.27
